Irving, Illinois
Current Conditions -  °F | °C
As of 9:35 PM on Friday 24 Oct 2014 (Local Time) from K3LF Reporting Station
Clear Clear  
Wind Chill: 57°   Ceiling: Unl
Heat Index: 57°   Visibility: 10mi
Dew Point: 48°   Wind: 10mph
Humidity: 72%   Direction: 170°S
Pressure: 29.99"   Gusts: NA
Location:  39.21°N, 89.4°W
Report Text: K3LF 250235Z AUTO 17009KT 10SM CLR 14/09 A2999 RMK AO2 T01410091
Loading
Personal Weather Stations






























Interactive Weather Map
Tropical Storm Tracking
New forecast layout! Learn more

10-Day Weather Forecast

Advertisements
Track Severe Weather on mobile